Time;durP1;ratioP1;P1;durP2;ratioP2;P2;SDS_P1;SDS_P2;PMS_P1;PMS_P2;Temp;Humidity;BMP_temperature;BMP_pressure;BME280_temperature;BME280_humidity;BME280_pressure;Samples;Min_cycle;Max_cycle;Signal;HPM_P1;HPM_P2
2021/10/26 00:01:34;;;;;;;74.42;33.35;;;;;;;-3.73;100.00;102587.67;1749918;82;21138;-41
2021/10/26 00:04:01;;;;;;;66.20;30.68;;;;;;;-3.73;100.00;102580.08;1749975;82;20956;-41
2021/10/26 00:06:27;;;;;;;85.45;44.40;;;;;;;-3.71;100.00;102582.34;1749949;82;20896;-42
2021/10/26 00:08:55;;;;;;;87.27;43.48;;;;;;;-3.70;100.00;102584.10;1750078;80;20991;-41
2021/10/26 00:11:22;;;;;;;86.70;39.85;;;;;;;-3.72;100.00;102584.38;1749796;81;20995;-42
2021/10/26 00:13:48;;;;;;;76.90;33.30;;;;;;;-3.74;100.00;102579.22;1750235;82;21106;-42
2021/10/26 00:16:15;;;;;;;87.05;36.63;;;;;;;-3.75;100.00;102575.78;1749759;82;20937;-41
2021/10/26 00:18:42;;;;;;;72.90;32.10;;;;;;;-3.77;100.00;102578.59;1750132;82;20928;-41
2021/10/26 00:21:08;;;;;;;67.58;31.70;;;;;;;-3.84;100.00;102575.12;1749840;82;20933;-41
2021/10/26 00:23:34;;;;;;;75.67;31.37;;;;;;;-3.88;100.00;102574.39;1750181;82;21048;-41
2021/10/26 00:26:03;;;;;;;80.57;35.43;;;;;;;-3.90;100.00;102576.80;1722089;82;21845;-42
2021/10/26 00:28:30;;;;;;;87.42;37.30;;;;;;;-3.92;100.00;102571.11;1750071;82;20881;-42
2021/10/26 00:30:56;;;;;;;82.67;34.03;;;;;;;-3.99;100.00;102573.59;1722722;82;20893;-42
2021/10/26 00:33:23;;;;;;;82.60;35.43;;;;;;;-4.04;100.00;102573.23;1749831;82;20948;-41
2021/10/26 00:35:49;;;;;;;78.22;31.97;;;;;;;-4.07;100.00;102576.80;1749864;81;20964;-41
2021/10/26 00:38:18;;;;;;;50.38;22.48;;;;;;;-4.08;100.00;102578.83;1749911;81;21154;-41
2021/10/26 00:40:46;;;;;;;51.90;25.40;;;;;;;-4.11;100.00;102587.46;1749860;82;20885;-41
2021/10/26 00:43:13;;;;;;;63.05;27.52;;;;;;;-4.08;100.00;102581.36;1739636;81;20885;-39
2021/10/26 00:45:39;;;;;;;59.23;26.57;;;;;;;-3.99;100.00;102582.81;1735987;82;21487;-41
2021/10/26 00:48:06;;;;;;;57.35;25.17;;;;;;;-3.93;100.00;102580.36;1735837;82;20909;-40
2021/10/26 00:50:33;;;;;;;45.33;23.10;;;;;;;-3.87;100.00;102582.48;1735828;82;21200;-39
2021/10/26 00:52:59;;;;;;;41.75;20.82;;;;;;;-3.82;100.00;102574.84;1739605;82;21597;-39
2021/10/26 00:55:26;;;;;;;35.43;18.65;;;;;;;-3.78;100.00;102576.83;1735958;81;21012;-41
2021/10/26 00:57:53;;;;;;;60.60;26.75;;;;;;;-3.73;100.00;102574.65;1735890;82;21566;-42
2021/10/26 01:00:20;;;;;;;51.48;23.25;;;;;;;-3.68;100.00;102574.59;1735985;82;20897;-41
2021/10/26 01:02:47;;;;;;;66.60;28.98;;;;;;;-3.64;100.00;102574.45;1735931;82;21157;-41
2021/10/26 01:05:15;;;;;;;69.80;30.20;;;;;;;-3.62;100.00;102580.51;1735868;81;20941;-41
2021/10/26 01:07:42;;;;;;;78.87;31.17;;;;;;;-3.64;100.00;102579.11;1736285;81;20969;-40
2021/10/26 01:10:09;;;;;;;72.17;31.27;;;;;;;-3.69;100.00;102582.06;1715047;82;20980;-41
2021/10/26 01:12:38;;;;;;;69.30;28.23;;;;;;;-3.76;100.00;102576.55;1736282;82;20920;-41
2021/10/26 01:15:06;;;;;;;76.33;29.23;;;;;;;-3.82;100.00;102576.11;1735756;81;21055;-41
2021/10/26 01:17:33;;;;;;;62.23;29.00;;;;;;;-3.84;100.00;102575.12;1714419;82;20881;-41
2021/10/26 01:20:00;;;;;;;67.42;29.50;;;;;;;-3.90;100.00;102580.99;1735936;82;20918;-41
2021/10/26 01:22:28;;;;;;;91.53;33.48;;;;;;;-3.96;100.00;102577.98;1735739;82;20968;-41
2021/10/26 01:24:59;;;;;;;66.50;30.05;;;;;;;-4.00;100.00;102575.98;1735905;82;20993;-40
2021/10/26 01:27:24;;;;;;;64.07;28.40;;;;;;;-4.06;100.00;102572.61;1735095;82;21847;-41
2021/10/26 01:29:52;;;;;;;60.03;26.97;;;;;;;-4.11;100.00;102570.12;1735835;82;20921;-41
2021/10/26 01:32:21;;;;;;;68.02;28.73;;;;;;;-4.16;100.00;102573.59;1739464;81;20984;-41
2021/10/26 01:34:49;;;;;;;80.12;33.65;;;;;;;-4.19;100.00;102571.69;1735978;81;20961;-41
2021/10/26 01:37:16;;;;;;;70.55;30.15;;;;;;;-4.21;100.00;102569.80;1735862;82;20985;-41
2021/10/26 01:39:43;;;;;;;76.37;28.57;;;;;;;-4.24;100.00;102570.83;1735881;82;21091;-41
2021/10/26 01:42:10;;;;;;;69.97;29.92;;;;;;;-4.25;100.00;102566.54;1735651;82;20909;-41
2021/10/26 01:44:38;;;;;;;68.20;28.05;;;;;;;-4.27;100.00;102560.12;1735676;82;20972;-41
2021/10/26 01:47:07;;;;;;;53.50;27.58;;;;;;;-4.28;100.00;102559.63;1736319;81;20886;-41
2021/10/26 01:49:35;;;;;;;62.73;28.38;;;;;;;-4.26;100.00;102558.45;1715582;82;21458;-41
2021/10/26 01:52:03;;;;;;;85.75;32.65;;;;;;;-4.24;100.00;102555.66;1735851;82;21207;-41
2021/10/26 01:54:36;;;;;;;80.05;31.42;;;;;;;-4.24;100.00;102556.55;1735802;81;21012;-41
2021/10/26 01:56:58;;;;;;;69.40;29.72;;;;;;;-4.24;100.00;102568.30;1736149;81;20949;-41
2021/10/26 01:59:26;;;;;;;80.57;31.90;;;;;;;-4.26;100.00;102563.15;1736317;81;21466;-41
2021/10/26 02:01:53;;;;;;;74.12;29.92;;;;;;;-4.26;100.00;102556.83;1735900;82;21593;-41
2021/10/26 02:04:27;;;;;;;75.90;31.73;;;;;;;-4.28;100.00;102557.09;1735640;82;21807;-41
2021/10/26 02:06:53;;;;;;;75.85;32.15;;;;;;;-4.31;100.00;102552.17;1735973;81;20945;-41
2021/10/26 02:09:20;;;;;;;80.35;33.58;;;;;;;-4.34;100.00;102551.17;1735745;82;20961;-42
2021/10/26 02:11:47;;;;;;;81.82;32.98;;;;;;;-4.37;100.00;102552.21;1735957;82;21470;-41
2021/10/26 02:14:14;;;;;;;79.03;31.62;;;;;;;-4.42;100.00;102556.05;1735780;82;21035;-42
2021/10/26 02:16:43;;;;;;;85.77;34.65;;;;;;;-4.47;100.00;102555.68;1736061;82;21158;-41
2021/10/26 02:19:09;;;;;;;75.87;30.95;;;;;;;-4.50;100.00;102563.40;1735735;82;20969;-41
2021/10/26 02:21:37;;;;;;;54.00;25.00;;;;;;;-4.56;100.00;102562.53;1735694;81;21082;-40
2021/10/26 02:24:04;;;;;;;61.00;28.57;;;;;;;-4.59;100.00;102564.83;1736138;81;21000;-41
2021/10/26 02:26:34;;;;;;;63.08;28.70;;;;;;;-4.61;100.00;102566.36;1735826;81;20992;-42
2021/10/26 02:29:00;;;;;;;62.40;29.30;;;;;;;-4.62;100.00;102559.17;1736013;82;21300;-41
2021/10/26 02:31:27;;;;;;;71.17;32.75;;;;;;;-4.64;100.00;102566.13;1736121;82;20940;-42
2021/10/26 02:33:53;;;;;;;50.98;22.25;;;;;;;-4.62;100.00;102565.50;1735834;82;20996;-41
2021/10/26 02:36:20;;;;;;;79.12;34.40;;;;;;;-4.60;100.00;102559.67;1739923;81;20981;-41
2021/10/26 02:38:47;;;;;;;70.42;30.15;;;;;;;-4.54;100.00;102555.98;1736059;82;21415;-46
2021/10/26 02:41:14;;;;;;;48.85;23.65;;;;;;;-4.49;100.00;102557.58;1735736;82;21319;-42
2021/10/26 02:43:40;;;;;;;55.12;26.42;;;;;;;-4.45;100.00;102550.72;1745292;81;20988;-41
2021/10/26 02:46:07;;;;;;;72.53;29.45;;;;;;;-4.35;100.00;102549.41;1749806;82;20975;-40
2021/10/26 02:48:34;;;;;;;59.25;24.87;;;;;;;-4.30;100.00;102548.48;1749866;82;20893;-41
2021/10/26 02:51:00;;;;;;;64.47;26.62;;;;;;;-4.29;100.00;102545.58;1750138;82;21023;-40
2021/10/26 02:53:26;;;;;;;57.65;23.85;;;;;;;-4.25;100.00;102545.94;1749811;80;21116;-42
2021/10/26 02:55:53;;;;;;;70.72;24.57;;;;;;;-4.20;100.00;102551.33;1749716;82;20936;-41
2021/10/26 02:58:21;;;;;;;64.15;24.55;;;;;;;-4.18;100.00;102552.31;1749746;82;20908;-42
2021/10/26 03:00:48;;;;;;;52.65;22.05;;;;;;;-4.12;100.00;102543.95;1747012;80;21530;-41
2021/10/26 03:03:15;;;;;;;59.88;22.45;;;;;;;-4.09;100.00;102540.38;1749881;82;20921;-41
2021/10/26 03:05:42;;;;;;;58.23;21.15;;;;;;;-4.04;100.00;102542.00;1749949;80;21459;-42
2021/10/26 03:08:10;;;;;;;53.28;21.70;;;;;;;-3.98;100.00;102540.29;1749689;82;20979;-42
2021/10/26 03:10:38;;;;;;;50.48;20.37;;;;;;;-3.96;100.00;102538.75;1749922;80;20989;-49
2021/10/26 03:13:06;;;;;;;41.95;22.15;;;;;;;-3.95;100.00;102536.72;1749795;82;21411;-41
2021/10/26 03:15:32;;;;;;;36.10;19.40;;;;;;;-3.95;100.00;102538.87;1749866;82;20995;-41
2021/10/26 03:18:00;;;;;;;35.98;17.37;;;;;;;-3.95;100.00;102543.94;1749817;81;21815;-42
2021/10/26 03:20:27;;;;;;;64.15;27.67;;;;;;;-3.94;100.00;102543.17;1749768;80;20925;-42
2021/10/26 03:22:54;;;;;;;98.22;39.98;;;;;;;-3.93;100.00;102538.61;1749775;80;20892;-42
2021/10/26 03:25:21;;;;;;;75.40;32.48;;;;;;;-3.96;100.00;102535.85;1749977;80;21019;-41
2021/10/26 03:27:51;;;;;;;62.53;30.10;;;;;;;-4.01;100.00;102531.20;1749762;82;21027;-41
2021/10/26 03:30:17;;;;;;;62.55;26.37;;;;;;;-4.06;100.00;102527.06;1750456;82;21028;-42
2021/10/26 03:32:44;;;;;;;40.90;20.23;;;;;;;-4.08;100.00;102529.49;1749965;80;20941;-41
2021/10/26 03:35:16;;;;;;;57.73;27.50;;;;;;;-4.06;100.00;102526.69;1750188;82;20936;-42
2021/10/26 03:37:42;;;;;;;42.80;20.82;;;;;;;-4.04;100.00;102523.02;1750018;82;20943;-42
2021/10/26 03:40:12;;;;;;;58.45;28.32;;;;;;;-4.08;100.00;102520.64;1750140;80;21461;-42
2021/10/26 03:42:39;;;;;;;65.40;29.50;;;;;;;-4.09;100.00;102517.98;1749954;82;21094;-41
2021/10/26 03:45:07;;;;;;;57.15;27.87;;;;;;;-4.13;100.00;102518.16;1749896;82;20889;-41
2021/10/26 03:47:39;;;;;;;48.92;21.52;;;;;;;-4.16;100.00;102518.30;1750191;82;20952;-41
2021/10/26 03:50:09;;;;;;;44.75;21.62;;;;;;;-4.19;100.00;102520.20;1749972;82;21139;-41
2021/10/26 03:52:36;;;;;;;52.20;24.18;;;;;;;-4.20;100.00;102515.91;1749918;82;21419;-40
2021/10/26 03:55:04;;;;;;;43.52;17.48;;;;;;;-4.19;100.00;102513.51;1750208;82;21799;-40
2021/10/26 03:57:31;;;;;;;50.28;19.60;;;;;;;-4.16;100.00;102517.03;1750158;81;20873;-41
2021/10/26 03:59:59;;;;;;;37.85;17.70;;;;;;;-4.14;100.00;102515.13;1750124;82;20893;-40
2021/10/26 04:02:32;;;;;;;54.15;17.57;;;;;;;-4.12;100.00;102512.69;1750007;82;20931;-40
2021/10/26 04:05:03;;;;;;;45.33;18.87;;;;;;;-4.09;100.00;102515.45;1749110;82;20921;-42
2021/10/26 04:07:27;;;;;;;39.48;18.55;;;;;;;-4.07;100.00;102513.55;1749850;81;21140;-41
2021/10/26 04:10:15;;;;;;;40.55;18.48;;;;;;;-4.06;100.00;102514.41;1749935;80;20909;-41
2021/10/26 04:12:26;;;;;;;42.30;18.95;;;;;;;-4.07;100.00;102508.85;1743749;82;20940;-42
2021/10/26 04:14:55;;;;;;;39.13;17.92;;;;;;;-4.07;100.00;102511.38;1722300;82;20964;-42
2021/10/26 04:17:23;;;;;;;64.03;27.13;;;;;;;-4.08;100.00;102513.05;1750047;82;21015;-41
2021/10/26 04:19:51;;;;;;;34.60;16.60;;;;;;;-4.13;100.00;102519.42;1749970;82;21168;-42
2021/10/26 04:22:17;;;;;;;39.45;18.55;;;;;;;-4.18;100.00;102514.37;1749715;82;20912;-42
2021/10/26 04:24:45;;;;;;;43.00;17.55;;;;;;;-4.18;100.00;102513.11;1750161;82;20841;-41
2021/10/26 04:27:12;;;;;;;34.20;15.10;;;;;;;-4.16;100.00;102511.60;1749915;82;20924;-41
2021/10/26 04:29:39;;;;;;;29.60;13.48;;;;;;;-4.13;100.00;102515.63;1750188;82;20948;-42
2021/10/26 04:32:09;;;;;;;27.42;12.10;;;;;;;-4.11;100.00;102516.98;1749769;80;21136;-42
2021/10/26 04:34:37;;;;;;;22.17;10.38;;;;;;;-4.05;100.00;102530.98;1750046;82;21399;-42
2021/10/26 04:37:08;;;;;;;30.48;12.25;;;;;;;-3.99;100.00;102522.08;1749910;81;20972;-41
2021/10/26 04:39:36;;;;;;;22.20;11.63;;;;;;;-3.94;100.00;102522.03;1750085;82;20952;-41
2021/10/26 04:42:06;;;;;;;22.27;10.70;;;;;;;-3.89;100.00;102523.28;1749727;82;20885;-40
2021/10/26 04:44:33;;;;;;;39.80;19.35;;;;;;;-3.84;100.00;102518.16;1738871;82;21112;-42
2021/10/26 04:47:00;;;;;;;38.45;20.97;;;;;;;-3.78;100.00;102527.47;1736044;82;20937;-41
2021/10/26 04:49:27;;;;;;;45.73;27.27;;;;;;;-3.75;100.00;102530.22;1735850;81;20889;-43
2021/10/26 04:51:53;;;;;;;38.85;21.68;;;;;;;-3.72;100.00;102527.05;1736061;82;20972;-42
2021/10/26 04:54:20;;;;;;;23.98;13.20;;;;;;;-3.66;100.00;102526.22;1735855;82;21039;-42
2021/10/26 04:56:48;;;;;;;21.70;12.37;;;;;;;-3.60;100.00;102533.39;1736291;81;21148;-42
2021/10/26 04:59:19;;;;;;;23.12;11.05;;;;;;;-3.53;100.00;102534.32;1721788;82;20914;-42
2021/10/26 05:01:45;;;;;;;25.43;11.33;;;;;;;-3.45;100.00;102531.08;1735879;82;20870;-41
2021/10/26 05:04:12;;;;;;;17.60;9.80;;;;;;;-3.36;100.00;102533.41;1736014;82;21474;-41
2021/10/26 05:06:41;;;;;;;15.23;7.70;;;;;;;-3.28;100.00;102523.42;1735846;82;20940;-39
2021/10/26 05:09:07;;;;;;;12.85;7.85;;;;;;;-3.19;100.00;102524.47;1735854;81;21864;-39
2021/10/26 05:11:34;;;;;;;12.58;6.95;;;;;;;-3.06;100.00;102518.62;1735820;82;20977;-39
2021/10/26 05:14:01;;;;;;;12.10;6.83;;;;;;;-2.94;100.00;102518.60;1739279;82;21029;-40
2021/10/26 05:16:39;;;;;;;11.90;6.85;;;;;;;-2.81;100.00;102525.00;1691734;84;21138;-39
2021/10/26 05:19:26;;;;;;;;;;;;;;;-2.70;100.00;102527.02;1738584;82;20983;-41
2021/10/26 05:22:12;;;;;;;;;;;;;;;-2.54;100.00;102531.48;1738734;82;20627;-40
2021/10/26 05:24:57;;;;;;;17.02;7.70;;;;;;;-2.41;100.00;102528.13;1735891;81;20123;-40
2021/10/26 05:27:25;;;;;;;9.75;6.72;;;;;;;-2.33;100.00;102528.28;1736037;81;20968;-40
2021/10/26 05:29:52;;;;;;;20.08;6.92;;;;;;;-2.23;100.00;102527.63;1735924;82;20918;-40
2021/10/26 05:32:20;;;;;;;13.05;6.67;;;;;;;-2.14;100.00;102535.88;1735880;82;20980;-40
2021/10/26 05:34:47;;;;;;;16.30;6.80;;;;;;;-2.05;100.00;102534.31;1735801;82;21135;-40
2021/10/26 05:37:13;;;;;;;13.88;7.08;;;;;;;-1.96;100.00;102537.86;1735842;82;20992;-40
2021/10/26 05:39:41;;;;;;;14.18;7.40;;;;;;;-1.86;100.00;102529.20;1736068;82;20966;-41
2021/10/26 05:42:08;;;;;;;11.15;6.10;;;;;;;-1.79;100.00;102533.52;1735733;81;20870;-41
2021/10/26 05:44:34;;;;;;;8.00;5.30;;;;;;;-1.68;100.00;102539.67;1745084;81;20888;-41
2021/10/26 05:47:02;;;;;;;14.05;5.62;;;;;;;-1.58;100.00;102543.33;1749821;82;21118;-41
2021/10/26 05:49:29;;;;;;;12.00;5.65;;;;;;;-1.50;100.00;102535.80;1722249;82;20964;-42
2021/10/26 05:51:57;;;;;;;9.20;5.67;;;;;;;-1.35;100.00;102547.33;1722042;82;21364;-41
2021/10/26 05:54:24;;;;;;;11.57;4.87;;;;;;;-1.24;100.00;102549.29;1749734;82;20880;-42
2021/10/26 05:56:51;;;;;;;6.53;4.67;;;;;;;-1.13;100.00;102541.48;1749920;82;20885;-42
2021/10/26 05:59:17;;;;;;;9.03;5.15;;;;;;;-1.00;100.00;102551.63;1722079;82;22220;-42
2021/10/26 06:01:44;;;;;;;9.30;5.10;;;;;;;-0.90;100.00;102547.59;1750022;82;20971;-42
2021/10/26 06:04:10;;;;;;;8.83;4.83;;;;;;;-0.78;100.00;102546.61;1722394;82;21035;-41
2021/10/26 06:06:37;;;;;;;8.25;4.62;;;;;;;-0.66;100.00;102556.25;1749725;82;21038;-42
2021/10/26 06:09:05;;;;;;;6.75;4.50;;;;;;;-0.52;100.00;102556.23;1749851;81;21494;-41
2021/10/26 06:11:33;;;;;;;11.38;5.22;;;;;;;-0.37;100.00;102558.45;1749870;82;21138;-39
2021/10/26 06:14:04;;;;;;;7.12;4.72;;;;;;;-0.25;100.00;102559.95;1749699;82;20924;-39
2021/10/26 06:16:31;;;;;;;8.50;4.45;;;;;;;-0.15;100.00;102564.80;1749839;81;21537;-39
2021/10/26 06:18:58;;;;;;;7.03;4.60;;;;;;;-0.03;100.00;102564.27;1749779;82;20932;-39
2021/10/26 06:21:25;;;;;;;6.97;4.65;;;;;;;0.14;100.00;102569.48;1722138;82;20972;-42
2021/10/26 06:23:53;;;;;;;8.70;4.60;;;;;;;0.26;100.00;102568.91;1749785;82;21146;-41
2021/10/26 06:26:21;;;;;;;10.10;4.92;;;;;;;0.39;99.62;102568.35;1721896;82;20987;-40
2021/10/26 06:28:51;;;;;;;8.85;5.55;;;;;;;0.51;99.28;102563.94;1750133;81;20909;-40
2021/10/26 06:31:18;;;;;;;7.33;4.67;;;;;;;0.65;98.95;102571.09;1749763;82;21561;-40
2021/10/26 06:33:46;;;;;;;8.18;4.87;;;;;;;0.78;98.37;102566.28;1750254;81;20900;-41
2021/10/26 06:36:23;;;;;;;8.75;5.05;;;;;;;0.93;97.77;102561.56;1749847;81;21802;-41
2021/10/26 06:38:51;;;;;;;8.58;4.37;;;;;;;1.05;96.95;102568.59;1749533;82;21022;-41
2021/10/26 06:41:19;;;;;;;8.35;4.35;;;;;;;1.19;95.95;102571.03;1749996;82;20932;-42
2021/10/26 06:43:53;;;;;;;5.65;3.58;;;;;;;1.32;95.48;102565.78;1695145;82;20965;-42
2021/10/26 06:46:38;;;;;;;7.15;4.30;;;;;;;1.46;94.35;102569.06;1744577;82;21530;-42
2021/10/26 06:49:23;;;;;;;7.78;4.45;;;;;;;1.64;92.91;102566.63;1744024;82;21156;-42
2021/10/26 06:52:08;;;;;;;7.42;4.87;;;;;;;1.84;91.88;102566.76;1744180;82;20834;-42
2021/10/26 06:54:53;;;;;;;6.07;3.57;;;;;;;2.03;90.37;102559.66;1744259;82;20901;-42
2021/10/26 06:57:41;;;;;;;12.20;4.62;;;;;;;2.24;88.57;102556.02;1743940;82;21045;-40
2021/10/26 07:00:14;;;;;;;7.20;4.75;;;;;;;2.44;87.17;102553.56;1743979;82;20932;-40
2021/10/26 07:03:03;;;;;;;7.22;4.67;;;;;;;2.64;86.28;102554.52;1719372;82;21203;-46
2021/10/26 07:05:41;;;;;;;12.85;6.62;;;;;;;2.85;85.51;102550.81;1744044;82;20956;-42
2021/10/26 07:08:26;;;;;;;7.50;5.20;;;;;;;3.04;84.86;102551.67;1744414;82;21541;-42
2021/10/26 07:10:56;;;;;;;17.80;6.50;;;;;;;3.23;81.92;102545.71;1743840;81;21007;-40
2021/10/26 07:13:24;;;;;;;13.30;7.00;;;;;;;3.42;79.96;102541.04;1744173;82;20873;-41
2021/10/26 07:15:51;;;;;;;14.63;6.22;;;;;;;3.59;78.93;102540.88;1744094;81;21779;-41
2021/10/26 07:18:18;;;;;;;16.32;5.20;;;;;;;3.76;77.50;102536.91;1744070;82;20957;-41
2021/10/26 07:20:45;;;;;;;7.25;4.92;;;;;;;3.92;73.99;102539.72;1744184;81;22282;-42
2021/10/26 07:23:31;;;;;;;9.03;4.28;;;;;;;4.07;72.70;102544.23;1744313;82;21557;-42
2021/10/26 07:26:00;;;;;;;12.85;3.72;;;;;;;4.24;70.55;102532.09;1740137;82;20992;-42
2021/10/26 07:28:27;;;;;;;10.18;4.40;;;;;;;4.38;68.83;102532.66;1744147;82;21155;-42
2021/10/26 07:30:53;;;;;;;8.63;4.55;;;;;;;4.51;69.17;102534.03;1744068;82;20975;-42
2021/10/26 07:33:25;;;;;;;7.53;4.42;;;;;;;4.66;67.99;102522.61;1744096;82;20936;-42
2021/10/26 07:35:52;;;;;;;9.95;4.25;;;;;;;4.79;67.63;102529.98;1744416;81;21016;-43
2021/10/26 07:38:30;;;;;;;13.83;5.08;;;;;;;4.91;66.14;102533.82;1714939;82;21491;-41
2021/10/26 07:40:59;;;;;;;23.30;5.55;;;;;;;5.04;64.49;102527.92;1744340;82;21903;-42
2021/10/26 07:43:44;;;;;;;9.35;4.60;;;;;;;5.20;63.63;102518.66;1715087;81;20841;-41
2021/10/26 07:46:12;;;;;;;16.40;5.53;;;;;;;5.36;62.77;102525.23;1721685;82;20975;-41
2021/10/26 07:48:39;;;;;;;7.87;5.17;;;;;;;5.53;62.11;102520.70;1749893;81;20967;-41
2021/10/26 07:51:05;;;;;;;14.95;5.90;;;;;;;5.68;61.71;102524.22;1750115;82;21419;-41
2021/10/26 07:53:32;;;;;;;8.95;5.45;;;;;;;5.83;62.32;102523.87;1750203;82;21892;-41
2021/10/26 07:56:05;;;;;;;8.85;5.45;;;;;;;5.95;62.32;102519.16;1749875;81;20936;-41
2021/10/26 07:58:31;;;;;;;14.13;4.83;;;;;;;6.07;60.38;102517.84;1750284;82;21535;-41
2021/10/26 08:00:58;;;;;;;6.75;4.08;;;;;;;6.23;60.75;102518.82;1721090;82;21406;-41
2021/10/26 08:03:40;;;;;;;6.58;4.08;;;;;;;6.36;58.25;102517.52;1707938;82;21464;-43
2021/10/26 08:06:09;;;;;;;10.85;4.35;;;;;;;6.48;56.76;102513.17;1749822;82;21186;-41
2021/10/26 08:08:36;;;;;;;9.50;3.80;;;;;;;6.64;55.32;102514.92;1750112;82;20889;-41
2021/10/26 08:11:03;;;;;;;6.35;3.85;;;;;;;6.81;56.99;102515.03;1750007;82;20968;-41
2021/10/26 08:13:31;;;;;;;15.03;4.08;;;;;;;6.94;54.58;102512.80;1749797;82;20964;-41
2021/10/26 08:15:58;;;;;;;10.68;3.83;;;;;;;6.97;52.10;102507.77;1749827;82;20976;-41
2021/10/26 08:18:25;;;;;;;5.50;4.15;;;;;;;7.06;52.55;102508.03;1749970;82;21140;-41
2021/10/26 08:20:51;;;;;;;8.50;4.12;;;;;;;7.19;52.09;102508.82;1749967;82;21506;-42
2021/10/26 08:23:20;;;;;;;9.95;4.80;;;;;;;7.35;52.00;102504.55;1749946;82;20937;-41
2021/10/26 08:25:51;;;;;;;9.25;3.90;;;;;;;7.44;52.23;102506.08;1749913;82;20976;-41
2021/10/26 08:28:17;;;;;;;7.20;4.50;;;;;;;7.56;50.81;102505.11;1749914;81;20916;-41
2021/10/26 08:30:51;;;;;;;8.45;3.98;;;;;;;7.66;50.81;102505.38;1749771;82;21313;-41
2021/10/26 08:33:39;;;;;;;8.68;3.75;;;;;;;7.76;49.71;102509.52;1749177;82;20896;-41
2021/10/26 08:35:54;;;;;;;7.42;4.20;;;;;;;7.96;49.10;102503.12;1749525;81;20866;-41
2021/10/26 08:38:20;;;;;;;14.80;4.47;;;;;;;8.18;49.34;102499.35;1722138;82;21494;-42
2021/10/26 08:41:06;;;;;;;7.90;4.22;;;;;;;8.43;49.64;102497.35;1750077;81;21003;-42
2021/10/26 08:43:33;;;;;;;9.73;4.30;;;;;;;8.62;48.62;102500.84;1749785;82;21309;-41
2021/10/26 08:46:06;;;;;;;10.98;4.35;;;;;;;8.67;47.36;102488.45;1741962;82;20968;-41
2021/10/26 08:48:30;;;;;;;15.28;4.50;;;;;;;8.76;46.92;102488.67;1716365;82;21486;-41
2021/10/26 08:51:15;;;;;;;11.40;4.45;;;;;;;8.70;46.30;102496.27;1716631;82;20869;-41
2021/10/26 08:53:44;;;;;;;14.75;5.03;;;;;;;8.73;46.89;102489.47;1716687;82;20976;-41
2021/10/26 08:56:26;;;;;;;21.33;5.80;;;;;;;8.79;45.78;102482.69;1716485;82;21105;-42
2021/10/26 08:58:56;;;;;;;11.28;5.42;;;;;;;8.82;46.31;102481.45;1746169;82;20968;-42
2021/10/26 09:01:21;;;;;;;10.55;4.58;;;;;;;8.91;45.86;102481.23;1746168;82;20936;-43
2021/10/26 09:03:50;;;;;;;10.00;5.17;;;;;;;9.03;45.40;102480.61;1740471;82;21039;-44
2021/10/26 09:06:33;;;;;;;10.65;5.28;;;;;;;9.15;45.83;102482.58;1746316;82;20968;-41
2021/10/26 09:08:54;;;;;;;27.58;6.28;;;;;;;9.28;46.28;102469.91;1716538;82;21828;-42
2021/10/26 09:11:33;;;;;;;11.25;5.67;;;;;;;9.39;44.90;102481.31;1746129;82;20988;-43
2021/10/26 09:17:29;;;;;;;13.15;5.47;;;;;;;9.44;44.60;102465.45;1746305;82;20901;-41
2021/10/26 09:20:17;;;;;;;11.95;5.62;;;;;;;9.37;43.80;102460.17;1746185;81;20929;-41
2021/10/26 09:22:50;;;;;;;15.58;5.42;;;;;;;9.26;43.74;102458.23;1745453;82;23181;-42
2021/10/26 09:25:19;;;;;;;10.72;4.95;;;;;;;9.52;43.93;102455.70;1746006;81;21545;-43
2021/10/26 09:27:49;;;;;;;21.77;5.80;;;;;;;9.78;43.32;102445.79;1746087;80;20953;-42
2021/10/26 09:30:22;;;;;;;14.15;5.72;;;;;;;10.02;42.22;102440.56;1746023;81;20973;-44
2021/10/26 09:32:49;;;;;;;16.93;5.42;;;;;;;10.00;41.72;102435.38;1746185;82;20877;-42
2021/10/26 09:35:18;;;;;;;10.00;6.15;;;;;;;10.04;42.52;102437.58;1716492;82;21073;-43
2021/10/26 09:37:49;;;;;;;8.50;6.08;;;;;;;10.16;42.43;102437.78;1746130;82;20971;-42
2021/10/26 09:40:17;;;;;;;45.98;17.95;;;;;;;10.36;40.14;102433.32;1745864;82;20977;-43
2021/10/26 09:42:52;;;;;;;25.97;14.38;;;;;;;10.28;40.94;102431.91;1741483;81;20961;-43
2021/10/26 09:45:28;;;;;;;145.43;114.23;;;;;;;10.32;41.17;102429.80;1747717;81;20916;-43
2021/10/26 09:47:58;;;;;;;49.05;33.28;;;;;;;10.35;40.21;102417.31;1749933;82;21921;-42
2021/10/26 09:50:31;;;;;;;14.35;10.10;;;;;;;10.39;40.95;102418.23;1749807;82;20873;-42
2021/10/26 09:53:13;;;;;;;51.18;37.75;;;;;;;10.44;40.62;102410.13;1749719;82;20956;-42
2021/10/26 09:55:47;;;;;;;23.38;16.00;;;;;;;10.52;40.53;102413.72;1749687;82;20944;-42
2021/10/26 09:58:16;;;;;;;11.12;6.65;;;;;;;10.67;39.51;102410.86;1749593;81;20928;-42
2021/10/26 10:00:45;;;;;;;12.63;8.23;;;;;;;10.62;39.42;102407.79;1749148;82;21824;-41
2021/10/26 10:03:19;;;;;;;6.95;5.00;;;;;;;10.44;39.26;102405.84;1749703;82;20975;-42
2021/10/26 10:05:59;;;;;;;100.85;53.92;;;;;;;10.39;40.95;102398.41;1722350;82;20943;-41
2021/10/26 10:08:34;;;;;;;20.85;16.48;;;;;;;10.40;40.56;102399.27;1749651;82;20991;-42
2021/10/26 10:11:14;;;;;;;12.70;7.72;;;;;;;10.26;40.06;102386.13;1749802;82;20976;-42
2021/10/26 10:13:53;;;;;;;22.13;6.28;;;;;;;10.23;40.22;102385.69;1749729;82;21155;-41
2021/10/26 10:16:21;;;;;;;23.00;6.72;;;;;;;10.28;40.07;102378.84;1749358;82;20928;-41
2021/10/26 10:18:48;;;;;;;19.95;6.00;;;;;;;10.60;40.07;102382.30;1746909;82;20913;-42
2021/10/26 10:21:17;;;;;;;20.10;6.25;;;;;;;10.74;39.82;102374.69;1749594;82;20967;-42
2021/10/26 10:23:44;;;;;;;21.25;5.60;;;;;;;10.67;39.60;102369.41;1750034;82;21928;-42
2021/10/26 10:26:16;;;;;;;22.70;6.70;;;;;;;10.50;40.42;102368.81;1749507;82;21192;-42
2021/10/26 10:28:48;;;;;;;17.65;6.62;;;;;;;10.44;40.83;102366.12;1749460;82;20992;-42
2021/10/26 10:31:19;;;;;;;17.10;6.28;;;;;;;10.44;40.05;102359.23;1749746;82;21005;-41
2021/10/26 10:33:45;;;;;;;18.30;7.08;;;;;;;10.52;40.37;102354.16;1749440;82;20901;-42
2021/10/26 10:36:12;;;;;;;369.55;294.98;;;;;;;10.52;41.48;102348.98;1721789;82;21038;-42
2021/10/26 10:38:38;;;;;;;65.55;35.58;;;;;;;10.80;40.48;102348.41;1749995;82;21515;-42
2021/10/26 10:41:28;;;;;;;62.43;44.42;;;;;;;11.14;40.03;102347.47;1749670;82;22289;-42
2021/10/26 10:43:59;;;;;;;81.35;51.25;;;;;;;11.18;38.77;102346.20;1749846;82;20853;-42
2021/10/26 10:46:59;;;;;;;65.40;46.25;;;;;;;11.16;39.33;102341.87;1749604;82;21520;-42
2021/10/26 10:49:36;;;;;;;36.13;17.60;;;;;;;11.25;39.76;102333.31;1749875;82;21004;-42
2021/10/26 10:52:08;;;;;;;19.50;9.95;;;;;;;11.37;39.60;102336.00;1721047;82;21200;-42
2021/10/26 10:54:50;;;;;;;25.15;8.50;;;;;;;11.36;39.04;102323.45;1749592;82;20965;-42
2021/10/26 10:57:25;;;;;;;27.10;10.05;;;;;;;11.15;39.50;102330.63;1746704;82;20972;-42
2021/10/26 11:01:36;;;;;;;16.65;9.80;;;;;;;11.30;40.18;102316.92;1798251;79;22617;-42
2021/10/26 11:04:26;;;;;;;25.37;10.80;;;;;;;11.27;39.94;102313.02;1757940;80;20920;-42
2021/10/26 11:06:55;;;;;;;24.85;11.80;;;;;;;11.15;39.16;102312.92;1758031;81;21943;-42
2021/10/26 11:09:38;;;;;;;25.23;10.78;;;;;;;10.98;40.14;102310.16;1757868;80;21387;-42
2021/10/26 11:12:32;;;;;;;16.93;9.70;;;;;;;10.87;39.89;102310.08;1739077;81;21015;-43
2021/10/26 11:15:02;;;;;;;21.02;11.25;;;;;;;10.56;40.68;102311.91;1757799;81;20940;-42
2021/10/26 11:17:43;;;;;;;40.90;13.40;;;;;;;10.54;40.94;102311.02;1757882;81;21015;-42
2021/10/26 11:20:12;;;;;;;35.75;11.65;;;;;;;10.73;41.14;102307.31;1757895;81;21155;-43
2021/10/26 11:23:04;;;;;;;49.80;12.70;;;;;;;10.85;39.24;102303.57;1753463;81;21034;-43
2021/10/26 11:25:37;;;;;;;29.05;13.05;;;;;;;10.74;39.45;102300.02;1749568;82;20932;-42
2021/10/26 11:28:17;;;;;;;33.50;13.05;;;;;;;10.63;39.65;102292.98;1749676;82;21508;-43
2021/10/26 11:30:49;;;;;;;32.10;13.10;;;;;;;10.68;39.98;102289.16;1749780;82;21494;-42